Time;durP1;ratioP1;P1;durP2;ratioP2;P2;SDS_P1;SDS_P2;PMS_P1;PMS_P2;Temp;Humidity;BMP_temperature;BMP_pressure;BME280_temperature;BME280_humidity;BME280_pressure;Samples;Min_cycle;Max_cycle;Signal;HPM_P1;HPM_P2
2021/09/17 00:00:09;;;;;;;2.40;0.40;;;13.30;99.90;;;;;;5034709;28;20029;-85
2021/09/17 00:02:35;;;;;;;0.45;0.45;;;13.30;99.90;;;;;;5034662;28;20025;-84
2021/09/17 00:05:01;;;;;;;1.80;0.77;;;13.30;99.90;;;;;;5034365;28;20317;-85
2021/09/17 00:07:26;;;;;;;7.95;0.73;;;13.30;99.90;;;;;;5034605;28;20025;-84
2021/09/17 00:09:52;;;;;;;5.28;0.50;;;13.30;99.90;;;;;;5033493;28;20111;-85
2021/09/17 00:12:18;;;;;;;0.68;0.60;;;13.30;99.90;;;;;;5032512;28;20108;-85
2021/09/17 00:14:44;;;;;;;6.93;0.73;;;13.30;99.90;;;;;;5033748;28;20030;-85
2021/09/17 00:17:11;;;;;;;1.75;0.70;;;13.40;99.90;;;;;;5034288;28;20018;-85
2021/09/17 00:19:37;;;;;;;2.15;0.80;;;13.40;99.90;;;;;;5034045;28;20057;-85
2021/09/17 00:22:03;;;;;;;2.88;0.80;;;13.30;99.90;;;;;;5034272;28;20065;-85
2021/09/17 00:24:28;;;;;;;3.00;0.80;;;13.30;99.90;;;;;;5032799;28;20025;-85
2021/09/17 00:26:54;;;;;;;5.22;0.98;;;13.30;99.90;;;;;;5033987;28;20075;-85
2021/09/17 00:29:19;;;;;;;2.80;0.70;;;13.40;99.90;;;;;;5033752;28;20025;-86
2021/09/17 00:31:45;;;;;;;4.63;0.60;;;13.30;99.90;;;;;;5032890;28;20025;-86
2021/09/17 00:34:11;;;;;;;4.35;0.80;;;13.30;99.90;;;;;;5016193;28;20033;-85
2021/09/17 00:36:36;;;;;;;4.10;0.90;;;13.30;99.90;;;;;;5033992;28;20025;-85
2021/09/17 00:39:03;;;;;;;3.88;0.75;;;13.40;99.90;;;;;;5032547;28;20494;-85
2021/09/17 00:41:28;;;;;;;1.02;0.75;;;13.40;99.90;;;;;;5033904;28;20030;-85
2021/09/17 00:43:54;;;;;;;3.45;1.20;;;13.30;99.90;;;;;;5033685;28;20025;-84
2021/09/17 00:46:20;;;;;;;2.95;0.80;;;13.40;99.90;;;;;;5016096;28;20032;-84
2021/09/17 00:48:45;;;;;;;7.00;1.08;;;13.40;99.90;;;;;;5032480;28;20025;-85
2021/09/17 00:51:11;;;;;;;2.45;0.88;;;13.40;99.90;;;;;;5033485;28;20102;-84
2021/09/17 00:53:37;;;;;;;0.73;0.70;;;13.40;99.90;;;;;;5033718;28;20104;-85
2021/09/17 00:56:03;;;;;;;1.65;0.93;;;13.40;99.90;;;;;;5033455;28;20018;-85
2021/09/17 00:58:30;;;;;;;6.07;0.80;;;13.40;99.90;;;;;;5033576;28;20036;-85
2021/09/17 01:00:56;;;;;;;4.45;0.80;;;13.40;99.90;;;;;;5033124;28;20529;-85
2021/09/17 01:03:22;;;;;;;2.38;1.02;;;13.30;99.90;;;;;;5032687;28;20036;-85
2021/09/17 01:05:48;;;;;;;1.67;0.88;;;13.30;99.90;;;;;;5031807;28;20486;-84
2021/09/17 01:08:13;;;;;;;1.50;0.95;;;13.30;99.90;;;;;;5033358;28;20478;-85
2021/09/17 01:10:39;;;;;;;1.65;0.80;;;13.30;99.90;;;;;;5032602;28;20030;-84
2021/09/17 01:13:05;;;;;;;1.13;0.80;;;13.30;99.90;;;;;;5033371;28;20021;-85
2021/09/17 01:15:31;;;;;;;2.97;0.88;;;13.20;99.90;;;;;;5015286;28;20060;-85
2021/09/17 01:17:57;;;;;;;1.65;1.00;;;13.20;99.90;;;;;;5015496;28;20133;-84
2021/09/17 01:20:22;;;;;;;2.92;0.88;;;13.30;99.90;;;;;;5032940;28;20029;-85
2021/09/17 01:22:50;;;;;;;2.30;0.75;;;13.30;99.90;;;;;;5032929;28;20030;-84
2021/09/17 01:25:18;;;;;;;2.60;0.70;;;13.20;99.90;;;;;;5032471;28;20390;-85
2021/09/17 01:27:46;;;;;;;4.55;0.70;;;13.20;99.90;;;;;;5033059;28;20033;-85
2021/09/17 01:30:14;;;;;;;6.00;0.75;;;13.20;99.90;;;;;;5032967;28;20029;-86
2021/09/17 01:32:41;;;;;;;4.70;1.25;;;13.20;99.90;;;;;;5031402;28;20033;-85
2021/09/17 01:35:12;;;;;;;2.38;0.93;;;13.20;99.90;;;;;;5032708;28;20104;-84
2021/09/17 01:37:38;;;;;;;0.50;0.50;;;13.10;99.90;;;;;;5032810;28;20025;-84
2021/09/17 01:40:05;;;;;;;1.85;0.75;;;13.20;99.90;;;;;;5032855;28;20033;-84
2021/09/17 01:42:31;;;;;;;3.50;1.40;;;13.10;99.90;;;;;;5032483;28;20038;-84
2021/09/17 01:44:57;;;;;;;1.50;0.60;;;13.10;99.90;;;;;;5032562;28;20091;-85
2021/09/17 01:47:23;;;;;;;2.22;0.80;;;13.10;99.90;;;;;;5032684;28;20121;-85
2021/09/17 01:49:48;;;;;;;0.75;0.63;;;13.20;99.90;;;;;;5032596;28;20026;-85
2021/09/17 01:52:14;;;;;;;0.50;0.50;;;13.20;99.90;;;;;;5032259;28;20025;-85
2021/09/17 01:54:42;;;;;;;6.55;0.85;;;13.20;99.90;;;;;;5031045;28;20080;-84
2021/09/17 01:57:07;;;;;;;1.02;0.60;;;13.10;99.90;;;;;;5032490;28;20022;-86
2021/09/17 01:59:33;;;;;;;3.83;0.80;;;13.10;99.90;;;;;;5014900;28;20040;-85
2021/09/17 02:01:59;;;;;;;1.73;0.80;;;13.00;99.90;;;;;;5032235;28;20036;-85
2021/09/17 02:04:24;;;;;;;2.58;0.90;;;13.00;99.90;;;;;;5031588;28;20032;-85
2021/09/17 02:06:50;;;;;;;1.13;0.60;;;13.00;99.90;;;;;;5032033;28;20512;-85
2021/09/17 02:09:15;;;;;;;1.05;0.52;;;13.00;99.90;;;;;;5032241;28;20386;-85
2021/09/17 02:11:41;;;;;;;2.53;0.70;;;12.90;99.90;;;;;;5032304;28;20606;-85
2021/09/17 02:14:07;;;;;;;1.27;0.40;;;13.00;99.90;;;;;;5030422;28;20445;-85
2021/09/17 02:16:33;;;;;;;1.30;0.63;;;12.90;99.90;;;;;;5030950;28;20024;-84
2021/09/17 02:18:58;;;;;;;1.67;0.77;;;12.90;99.90;;;;;;5032139;28;20030;-85
2021/09/17 02:21:24;;;;;;;1.50;0.60;;;12.90;99.90;;;;;;5030864;28;20083;-85
2021/09/17 02:23:50;;;;;;;10.85;1.00;;;12.90;99.90;;;;;;5031549;28;20102;-85
2021/09/17 02:26:17;;;;;;;4.68;0.80;;;12.90;99.90;;;;;;5030762;28;20031;-84
2021/09/17 02:28:43;;;;;;;0.60;0.60;;;12.90;99.90;;;;;;5031963;28;20025;-84
2021/09/17 02:31:09;;;;;;;4.60;1.00;;;12.90;99.90;;;;;;5030734;28;20394;-86
2021/09/17 02:33:35;;;;;;;2.55;0.55;;;12.90;99.90;;;;;;5030311;28;20029;-85
2021/09/17 02:36:00;;;;;;;1.50;0.52;;;12.80;99.90;;;;;;5013452;28;20025;-84
2021/09/17 02:38:27;;;;;;;0.55;0.55;;;12.80;99.90;;;;;;5030674;28;20030;-86
2021/09/17 02:40:52;;;;;;;3.38;0.50;;;12.80;99.90;;;;;;5030868;28;20104;-85
2021/09/17 02:43:18;;;;;;;1.95;0.77;;;12.70;99.90;;;;;;5030327;28;20028;-85
2021/09/17 02:45:44;;;;;;;1.08;0.52;;;12.80;99.90;;;;;;5030277;28;20576;-86
2021/09/17 02:48:09;;;;;;;4.05;0.70;;;12.90;99.90;;;;;;5014133;28;20486;-84
2021/09/17 02:50:35;;;;;;;2.58;0.70;;;12.80;99.90;;;;;;5031737;28;20028;-84
2021/09/17 02:53:01;;;;;;;2.63;0.47;;;12.80;99.90;;;;;;5031768;28;20036;-85
2021/09/17 02:55:26;;;;;;;0.88;0.77;;;12.70;99.90;;;;;;5031262;28;20474;-85
2021/09/17 02:57:52;;;;;;;2.13;0.93;;;12.70;99.90;;;;;;5014084;28;20645;-85
2021/09/17 03:00:19;;;;;;;1.23;0.68;;;12.70;99.90;;;;;;5031701;28;20501;-85
2021/09/17 03:02:45;;;;;;;1.85;0.55;;;12.60;99.90;;;;;;5031731;28;20486;-85
2021/09/17 03:05:11;;;;;;;1.05;0.45;;;12.70;99.90;;;;;;5031034;28;20034;-85
2021/09/17 03:07:37;;;;;;;1.15;0.50;;;12.70;99.90;;;;;;5031649;28;20467;-86
2021/09/17 03:10:04;;;;;;;2.40;0.73;;;12.70;99.90;;;;;;5031163;28;20034;-84
2021/09/17 03:12:30;;;;;;;1.65;0.50;;;12.60;99.90;;;;;;5031857;28;20029;-85
2021/09/17 03:14:55;;;;;;;0.40;0.40;;;12.60;99.90;;;;;;5029789;28;20079;-84
2021/09/17 03:17:21;;;;;;;2.28;0.80;;;12.70;99.90;;;;;;5031261;28;20029;-85
2021/09/17 03:19:46;;;;;;;1.00;0.65;;;12.70;99.90;;;;;;5031553;28;20044;-84
2021/09/17 03:22:12;;;;;;;2.55;0.63;;;12.60;99.90;;;;;;5030272;28;20440;-84
2021/09/17 03:24:37;;;;;;;2.05;0.73;;;12.70;99.90;;;;;;5030615;28;20143;-85
2021/09/17 03:27:03;;;;;;;3.63;0.70;;;12.60;99.90;;;;;;5031445;28;20482;-85
2021/09/17 03:29:29;;;;;;;1.55;0.73;;;12.70;99.90;;;;;;5031322;28;20512;-85
2021/09/17 03:31:54;;;;;;;4.30;0.95;;;12.60;99.90;;;;;;5030254;28;20396;-84
2021/09/17 03:34:20;;;;;;;4.53;0.70;;;12.50;99.90;;;;;;5029996;28;20469;-84
2021/09/17 03:36:45;;;;;;;1.77;0.82;;;12.60;99.90;;;;;;5030989;28;20169;-84
2021/09/17 03:39:13;;;;;;;2.30;0.98;;;12.60;99.90;;;;;;5031288;28;20371;-85
2021/09/17 03:41:40;;;;;;;1.45;0.50;;;12.50;99.90;;;;;;5031368;28;20075;-85
2021/09/17 03:44:06;;;;;;;1.88;0.50;;;12.50;99.90;;;;;;5031119;28;20021;-84
2021/09/17 03:46:32;;;;;;;0.52;0.40;;;12.50;99.90;;;;;;5030960;28;20079;-85
2021/09/17 03:48:58;;;;;;;2.05;0.93;;;12.50;99.90;;;;;;5034769;28;20036;-84
2021/09/17 03:51:24;;;;;;;1.67;0.63;;;12.60;99.90;;;;;;5033659;28;20121;-85
2021/09/17 03:53:50;;;;;;;0.80;0.70;;;12.50;99.90;;;;;;5033424;28;20013;-84
2021/09/17 03:56:15;;;;;;;6.25;0.90;;;12.50;99.90;;;;;;5033224;28;20036;-85
2021/09/17 03:58:41;;;;;;;1.10;0.50;;;12.50;99.90;;;;;;5017052;28;20413;-85
2021/09/17 04:01:07;;;;;;;2.08;0.68;;;12.50;99.90;;;;;;5033520;28;20029;-85
2021/09/17 04:03:32;;;;;;;4.03;1.13;;;12.40;99.90;;;;;;5033464;28;20041;-84
2021/09/17 04:05:58;;;;;;;2.38;0.55;;;12.30;99.90;;;;;;5034132;28;20042;-86
2021/09/17 04:08:24;;;;;;;3.92;0.68;;;12.20;99.90;;;;;;5034571;28;20041;-84
2021/09/17 04:10:49;;;;;;;3.20;0.55;;;12.00;99.90;;;;;;5034616;28;20017;-85
2021/09/17 04:13:15;;;;;;;1.42;0.70;;;11.90;99.90;;;;;;5016771;28;20022;-85
2021/09/17 04:15:40;;;;;;;1.42;0.73;;;11.80;99.90;;;;;;5032948;28;20075;-85
2021/09/17 04:18:06;;;;;;;3.17;0.85;;;11.70;99.90;;;;;;5033967;28;20037;-84
2021/09/17 04:20:32;;;;;;;2.83;1.30;;;11.60;99.90;;;;;;5034485;28;20445;-86
2021/09/17 04:22:57;;;;;;;1.50;0.70;;;11.50;99.90;;;;;;5034321;28;20100;-85
2021/09/17 04:25:23;;;;;;;0.90;0.57;;;11.50;99.90;;;;;;5032961;28;20025;-86
2021/09/17 04:27:48;;;;;;;1.05;0.73;;;11.40;99.90;;;;;;5034161;28;20105;-86
2021/09/17 04:30:15;;;;;;;2.38;0.70;;;11.40;99.90;;;;;;5016562;28;20036;-85
2021/09/17 04:32:44;;;;;;;4.25;0.98;;;11.40;99.90;;;;;;5034235;28;20076;-85
2021/09/17 04:35:11;;;;;;;0.50;0.50;;;11.40;99.90;;;;;;5033897;28;20026;-85
2021/09/17 04:37:41;;;;;;;3.00;1.35;;;11.50;99.90;;;;;;5033972;28;20063;-85
2021/09/17 04:40:08;;;;;;;1.75;0.98;;;11.60;99.90;;;;;;5033767;28;20466;-85
2021/09/17 04:42:33;;;;;;;2.67;0.90;;;11.70;99.90;;;;;;5033928;28;20117;-85
2021/09/17 04:44:59;;;;;;;2.05;0.70;;;11.70;99.90;;;;;;5015971;28;20056;-86
2021/09/17 04:47:24;;;;;;;3.78;0.90;;;11.70;99.90;;;;;;5015864;28;20026;-85
2021/09/17 04:49:50;;;;;;;4.95;1.00;;;11.70;99.90;;;;;;5033700;28;20032;-85
2021/09/17 04:52:16;;;;;;;3.45;0.88;;;11.80;99.90;;;;;;5033809;28;20021;-85
2021/09/17 04:54:41;;;;;;;4.68;0.77;;;11.80;99.90;;;;;;5033066;28;20032;-85
2021/09/17 04:57:07;;;;;;;0.80;0.70;;;11.80;99.90;;;;;;5033693;28;20025;-85
2021/09/17 04:59:33;;;;;;;2.67;1.00;;;11.80;99.90;;;;;;5032825;28;20076;-85
2021/09/17 05:01:58;;;;;;;2.75;0.70;;;11.80;99.90;;;;;;5015989;28;20036;-84
2021/09/17 05:04:24;;;;;;;3.15;0.80;;;11.80;99.90;;;;;;5015586;28;20025;-85
2021/09/17 05:06:49;;;;;;;1.73;0.73;;;11.80;99.90;;;;;;5033286;28;20048;-85
2021/09/17 05:09:15;;;;;;;3.83;1.08;;;11.70;99.90;;;;;;5033141;28;20033;-85
2021/09/17 05:11:40;;;;;;;7.15;0.98;;;11.70;99.90;;;;;;5032138;28;20485;-85
2021/09/17 05:14:06;;;;;;;2.50;1.00;;;11.60;99.90;;;;;;5033276;28;20029;-85
2021/09/17 05:16:32;;;;;;;3.65;0.90;;;11.60;99.90;;;;;;5032072;28;20026;-85
2021/09/17 05:18:59;;;;;;;4.68;0.80;;;11.60;99.90;;;;;;5014880;28;20029;-85
2021/09/17 05:21:24;;;;;;;2.03;0.68;;;11.50;99.90;;;;;;5032038;28;20029;-85
2021/09/17 05:23:50;;;;;;;4.55;1.00;;;11.50;99.90;;;;;;5031742;28;20036;-85
2021/09/17 05:26:15;;;;;;;3.20;0.70;;;11.50;99.90;;;;;;5031829;28;20029;-85
2021/09/17 05:28:41;;;;;;;1.17;0.68;;;11.40;99.90;;;;;;5032802;28;20032;-85
2021/09/17 05:31:06;;;;;;;6.82;0.95;;;11.40;99.90;;;;;;5033057;28;20021;-85
2021/09/17 05:33:32;;;;;;;2.63;0.82;;;11.50;99.90;;;;;;5015234;28;20021;-85
2021/09/17 05:35:58;;;;;;;3.58;1.60;;;11.60;99.90;;;;;;5032492;28;20028;-85
2021/09/17 05:38:23;;;;;;;1.35;0.70;;;11.70;99.90;;;;;;5031085;28;20402;-85
2021/09/17 05:40:49;;;;;;;1.48;0.70;;;11.70;99.90;;;;;;5015162;28;20025;-85
2021/09/17 05:43:14;;;;;;;7.43;0.90;;;11.80;99.90;;;;;;5031552;28;20482;-84
2021/09/17 05:45:40;;;;;;;1.50;0.60;;;11.90;99.90;;;;;;5032495;28;20033;-85
2021/09/17 05:48:06;;;;;;;3.70;0.80;;;12.00;99.90;;;;;;5032432;28;20032;-85
2021/09/17 05:50:31;;;;;;;5.05;0.63;;;12.10;99.90;;;;;;5031341;28;20088;-85
2021/09/17 05:52:57;;;;;;;0.70;0.38;;;12.20;99.90;;;;;;5032725;28;20022;-85
2021/09/17 05:55:27;;;;;;;4.57;3.03;;;12.30;99.90;;;;;;5031290;28;20430;-85
2021/09/17 05:57:56;;;;;;;1.80;0.52;;;12.50;99.90;;;;;;5014416;28;20037;-86
2021/09/17 06:00:22;;;;;;;3.78;0.63;;;12.60;99.90;;;;;;5015059;28;20435;-85
2021/09/17 06:02:51;;;;;;;2.35;1.10;;;12.70;99.90;;;;;;5026151;28;20084;-85
2021/09/17 06:05:17;;;;;;;0.38;0.38;;;12.70;99.90;;;;;;5012220;28;20121;-85
2021/09/17 06:07:43;;;;;;;0.50;0.50;;;12.60;99.90;;;;;;5013810;28;20112;-85
2021/09/17 06:10:10;;;;;;;4.78;1.00;;;12.60;99.90;;;;;;5028382;28;20512;-85
2021/09/17 06:12:36;;;;;;;3.45;0.50;;;12.50;99.90;;;;;;5014150;28;20026;-85
2021/09/17 06:15:02;;;;;;;1.30;0.70;;;12.40;99.90;;;;;;5031326;28;20029;-87
2021/09/17 06:17:27;;;;;;;1.92;1.30;;;12.50;99.90;;;;;;5030649;28;20017;-86
2021/09/17 06:19:53;;;;;;;1.52;0.82;;;12.50;99.90;;;;;;5030664;28;20025;-84
2021/09/17 06:22:18;;;;;;;4.45;0.90;;;12.50;99.90;;;;;;5030924;28;20029;-85
2021/09/17 06:24:44;;;;;;;2.03;0.50;;;12.60;99.90;;;;;;5031757;28;20087;-86
2021/09/17 06:27:09;;;;;;;2.05;0.70;;;12.70;99.90;;;;;;5031917;28;20045;-86
2021/09/17 06:29:35;;;;;;;0.40;0.40;;;12.70;99.90;;;;;;5031636;28;20504;-86
2021/09/17 06:32:01;;;;;;;2.45;0.50;;;12.70;99.90;;;;;;5032169;28;20021;-87
2021/09/17 06:34:26;;;;;;;0.73;0.57;;;12.80;99.90;;;;;;5030844;28;20035;-86
2021/09/17 06:36:53;;;;;;;0.88;0.60;;;12.90;99.90;;;;;;5030978;28;20025;-87
2021/09/17 06:39:22;;;;;;;2.20;0.63;;;12.90;99.90;;;;;;5030614;28;20021;-86
2021/09/17 06:41:50;;;;;;;0.50;0.40;;;12.90;99.90;;;;;;5032002;28;20024;-87
2021/09/17 06:44:16;;;;;;;1.27;1.10;;;13.00;99.90;;;;;;5030741;28;20033;-87
2021/09/17 06:46:42;;;;;;;1.30;0.68;;;13.00;99.90;;;;;;5031990;28;20033;-86
2021/09/17 06:49:07;;;;;;;0.30;0.28;;;12.90;99.90;;;;;;5031509;28;20036;-87
2021/09/17 06:51:33;;;;;;;0.85;0.63;;;13.00;99.90;;;;;;5031986;28;20028;-87
2021/09/17 06:53:58;;;;;;;1.52;0.30;;;13.00;99.90;;;;;;5031863;28;20022;-87
2021/09/17 06:56:24;;;;;;;0.63;0.47;;;13.10;99.90;;;;;;5032435;28;20486;-88
2021/09/17 06:58:50;;;;;;;3.15;0.38;;;13.10;99.90;;;;;;5031081;28;20032;-86
2021/09/17 07:01:15;;;;;;;1.35;0.50;;;13.20;99.90;;;;;;5032737;28;20040;-88
2021/09/17 07:03:41;;;;;;;2.30;0.60;;;13.30;99.90;;;;;;5034232;28;20482;-88
2021/09/17 07:06:06;;;;;;;2.10;0.50;;;13.30;99.90;;;;;;5035283;28;20045;-91
2021/09/17 07:08:32;;;;;;;0.38;0.38;;;13.30;99.90;;;;;;5038909;28;20036;-88
2021/09/17 07:10:58;;;;;;;3.42;0.85;;;13.30;99.90;;;;;;5032088;28;20025;-88
2021/09/17 07:13:24;;;;;;;1.75;0.68;;;13.20;99.90;;;;;;5032222;28;20094;-89
2021/09/17 07:15:49;;;;;;;1.67;0.50;;;13.00;99.90;;;;;;5032178;28;20026;-88
2021/09/17 07:18:15;;;;;;;0.95;0.63;;;12.90;99.90;;;;;;5015153;28;20597;-89
2021/09/17 07:20:41;;;;;;;3.30;0.93;;;12.70;99.90;;;;;;5030935;28;20028;-88
2021/09/17 07:23:09;;;;;;;2.20;1.10;;;12.60;99.90;;;;;;5033453;28;20040;-85
2021/09/17 07:25:35;;;;;;;3.58;0.88;;;12.60;99.90;;;;;;5034767;28;20389;-88
2021/09/17 07:28:02;;;;;;;4.75;0.77;;;12.80;99.90;;;;;;5035621;28;20090;-89
2021/09/17 07:30:28;;;;;;;2.55;0.88;;;13.00;99.90;;;;;;5034727;28;20116;-88
2021/09/17 07:32:53;;;;;;;3.95;0.90;;;13.40;99.90;;;;;;5034786;28;20106;-88
2021/09/17 07:35:19;;;;;;;0.98;0.60;;;13.50;99.90;;;;;;5026580;28;20370;-89
2021/09/17 07:37:45;;;;;;;4.88;1.08;;;13.80;99.90;;;;;;5033628;28;20026;-88
2021/09/17 07:40:16;;;;;;;2.28;0.70;;;13.80;99.90;;;;;;5015785;28;20520;-86
2021/09/17 07:42:44;;;;;;;6.85;0.77;;;14.00;99.90;;;;;;5034585;28;20486;-86
2021/09/17 07:45:11;;;;;;;4.15;1.02;;;13.90;99.90;;;;;;5033650;28;20037;-86
2021/09/17 07:47:37;;;;;;;3.08;0.85;;;14.00;99.90;;;;;;5034115;28;20099;-87
2021/09/17 07:50:04;;;;;;;1.60;0.77;;;14.30;99.90;;;;;;5034003;28;20032;-87
2021/09/17 07:52:30;;;;;;;5.30;0.50;;;14.20;99.90;;;;;;5015519;28;20025;-86
2021/09/17 07:54:55;;;;;;;0.93;0.50;;;14.20;99.90;;;;;;5034302;28;20080;-86
2021/09/17 07:57:21;;;;;;;8.00;3.20;;;14.30;99.90;;;;;;5035215;28;20022;-86
2021/09/17 07:59:46;;;;;;;4.13;2.03;;;14.50;99.90;;;;;;5035213;28;20025;-84
2021/09/17 08:02:12;;;;;;;1.95;0.68;;;14.60;99.90;;;;;;5017284;28;20189;-88
2021/09/17 08:04:40;;;;;;;0.88;0.45;;;14.30;99.90;;;;;;5034854;28;20032;-87
2021/09/17 08:07:07;;;;;;;0.57;0.50;;;14.30;99.90;;;;;;5017122;28;20033;-89
2021/09/17 08:09:33;;;;;;;1.23;0.57;;;14.40;99.90;;;;;;5033272;28;20120;-87
2021/09/17 08:11:59;;;;;;;1.10;0.60;;;14.50;99.90;;;;;;5040095;28;20090;-88
2021/09/17 08:14:25;;;;;;;2.63;0.75;;;14.60;99.90;;;;;;5033491;28;20025;-86
2021/09/17 08:16:51;;;;;;;5.50;0.70;;;14.60;99.90;;;;;;5033544;28;20022;-86
2021/09/17 08:19:17;;;;;;;9.85;0.85;;;14.60;99.90;;;;;;5034718;28;20026;-90
2021/09/17 08:21:43;;;;;;;4.45;0.90;;;14.60;99.90;;;;;;5033474;28;20065;-86
2021/09/17 08:24:14;;;;;;;2.55;0.90;;;14.60;99.90;;;;;;5017106;28;20053;-88
2021/09/17 08:26:41;;;;;;;1.45;0.80;;;14.50;99.90;;;;;;5033216;28;20029;-87
2021/09/17 08:29:07;;;;;;;4.05;0.80;;;14.70;99.90;;;;;;5033853;28;20036;-87
2021/09/17 08:31:32;;;;;;;0.73;0.60;;;14.70;99.90;;;;;;5034035;28;20470;-86
2021/09/17 08:33:58;;;;;;;0.90;0.60;;;14.70;99.90;;;;;;5033040;28;20026;-87
2021/09/17 08:36:23;;;;;;;3.42;0.70;;;14.60;99.90;;;;;;5034983;28;20026;-92
2021/09/17 08:38:49;;;;;;;1.17;0.57;;;14.80;99.90;;;;;;5035498;28;20104;-91
2021/09/17 08:41:15;;;;;;;3.55;0.75;;;14.60;99.90;;;;;;5034562;28;20039;-92
2021/09/17 08:43:43;;;;;;;2.75;0.75;;;14.50;99.90;;;;;;5035019;28;20034;-88
2021/09/17 08:46:15;;;;;;;1.17;0.55;;;14.30;99.90;;;;;;5033743;28;20043;-90
2021/09/17 08:48:41;;;;;;;2.85;0.60;;;14.40;99.90;;;;;;5024438;28;20117;-92
2021/09/17 08:51:08;;;;;;;4.78;0.75;;;14.40;99.90;;;;;;5028441;28;20136;-90
2021/09/17 08:53:33;;;;;;;1.30;0.57;;;14.50;99.90;;;;;;5031781;28;20029;-91
2021/09/17 08:55:59;;;;;;;3.13;0.70;;;14.60;99.90;;;;;;5016004;28;20501;-87
2021/09/17 08:58:25;;;;;;;3.45;1.00;;;14.70;99.90;;;;;;5026659;28;20028;-88
2021/09/17 09:00:51;;;;;;;1.83;0.75;;;14.90;99.90;;;;;;5031443;28;20455;-89
2021/09/17 09:03:29;;;;;;;2.15;0.68;;;15.30;99.90;;;;;;5043409;28;20026;-89
2021/09/17 09:05:54;;;;;;;2.50;0.80;;;15.30;99.90;;;;;;5044483;28;20025;-89
2021/09/17 09:08:26;;;;;;;2.67;0.68;;;15.40;99.90;;;;;;5029137;28;20028;-88
2021/09/17 09:10:52;;;;;;;1.10;0.80;;;15.60;99.90;;;;;;5029855;28;20104;-87
2021/09/17 09:13:18;;;;;;;2.70;0.70;;;15.60;99.90;;;;;;5030434;28;20021;-90
2021/09/17 09:15:44;;;;;;;4.65;0.65;;;15.60;99.90;;;;;;5031173;28;20391;-89
2021/09/17 09:18:12;;;;;;;2.00;0.88;;;15.30;99.90;;;;;;5044027;28;20159;-86
2021/09/17 09:20:46;;;;;;;0.98;0.60;;;15.30;99.90;;;;;;5032989;28;20029;-89
2021/09/17 09:23:22;;;;;;;1.75;0.60;;;15.30;99.90;;;;;;5032862;28;20124;-89
2021/09/17 09:26:00;;;;;;;2.15;1.02;;;15.40;99.90;;;;;;5044673;28;20025;-88
2021/09/17 09:28:29;;;;;;;9.38;0.82;;;16.10;99.90;;;;;;5045098;28;20030;-89
2021/09/17 09:30:57;;;;;;;2.30;0.60;;;16.20;99.90;;;;;;5021747;28;20028;-90
2021/09/17 09:33:23;;;;;;;2.22;0.60;;;15.60;99.90;;;;;;5023231;28;20021;-89
2021/09/17 09:36:07;;;;;;;0.55;0.45;;;15.30;99.90;;;;;;5038474;28;20029;-90
2021/09/17 09:38:42;;;;;;;0.75;0.57;;;15.00;99.90;;;;;;5024574;28;20079;-91
2021/09/17 09:41:27;;;;;;;2.50;0.73;;;14.90;99.90;;;;;;5018213;28;20053;-88
2021/09/17 09:44:01;;;;;;;2.35;0.70;;;15.30;99.90;;;;;;5026819;28;20517;-88
2021/09/17 09:46:27;;;;;;;0.50;0.50;;;15.50;99.90;;;;;;5033389;28;20087;-89
2021/09/17 09:48:59;;;;;;;4.53;0.90;;;15.60;99.90;;;;;;5038469;28;20033;-87
2021/09/17 09:51:25;;;;;;;3.03;0.80;;;15.80;99.90;;;;;;5027697;28;20597;-88
2021/09/17 09:53:51;;;;;;;1.70;0.63;;;16.00;99.90;;;;;;5028555;28;20508;-86
2021/09/17 09:56:19;;;;;;;3.08;0.60;;;15.90;99.90;;;;;;5026098;28;20036;-86
2021/09/17 09:58:47;;;;;;;4.40;0.80;;;16.00;99.90;;;;;;5031797;28;20389;-88
2021/09/17 10:01:16;;;;;;;2.10;0.77;;;16.10;99.90;;;;;;5036418;28;20026;-87
2021/09/17 10:03:43;;;;;;;0.63;0.50;;;16.20;99.90;;;;;;5030984;28;20033;-87
2021/09/17 10:06:10;;;;;;;2.45;0.70;;;16.20;99.90;;;;;;5029772;28;20030;-86
2021/09/17 10:08:35;;;;;;;1.70;0.50;;;16.30;99.90;;;;;;5036333;28;20025;-92
2021/09/17 10:11:01;;;;;;;4.38;1.10;;;16.30;99.90;;;;;;5013873;28;20203;-85
2021/09/17 10:13:27;;;;;;;4.60;1.05;;;16.30;99.90;;;;;;5026808;28;20112;-85
2021/09/17 10:15:53;;;;;;;2.15;0.80;;;16.40;99.90;;;;;;5037561;28;20017;-84
2021/09/17 10:18:19;;;;;;;4.15;1.00;;;16.30;99.90;;;;;;5027672;28;20436;-85
2021/09/17 10:20:45;;;;;;;3.60;1.05;;;16.10;99.90;;;;;;5027069;28;20029;-87
2021/09/17 10:23:44;;;;;;;0.95;0.80;;;16.10;99.90;;;;;;5027448;28;20494;-85
2021/09/17 10:26:15;;;;;;;1.85;0.77;;;16.00;99.90;;;;;;4966359;28;20035;-84
2021/09/17 10:29:02;;;;;;;0.98;0.70;;;16.10;99.90;;;;;;4952931;28;20073;-83
2021/09/17 10:31:43;;;;;;;3.28;0.52;;;16.50;99.90;;;;;;5022205;28;20780;-84
2021/09/17 10:34:32;;;;;;;2.58;0.70;;;16.80;99.90;;;;;;5028423;28;20021;-82
2021/09/17 10:36:59;;;;;;;3.95;0.88;;;17.10;99.90;;;;;;5027467;28;20478;-84
2021/09/17 10:39:25;;;;;;;1.42;0.52;;;17.30;99.90;;;;;;5027111;28;20375;-82
2021/09/17 10:42:17;;;;;;;2.55;0.75;;;17.60;99.90;;;;;;5027332;28;20029;-83
2021/09/17 10:45:12;;;;;;;1.55;0.60;;;17.50;99.90;;;;;;5026998;28;20394;-83
2021/09/17 10:47:40;;;;;;;2.08;0.68;;;17.30;99.90;;;;;;5041725;28;20049;-85
2021/09/17 10:50:08;;;;;;;2.75;0.70;;;17.20;99.90;;;;;;5032198;28;20029;-85
2021/09/17 10:52:39;;;;;;;3.88;0.65;;;17.20;99.90;;;;;;5031934;28;20021;-84
2021/09/17 10:55:07;;;;;;;1.00;0.47;;;17.20;99.90;;;;;;5027117;28;20024;-86
2021/09/17 10:57:32;;;;;;;2.17;0.73;;;17.40;99.90;;;;;;5026456;28;20025;-87
2021/09/17 10:59:59;;;;;;;2.50;0.75;;;17.50;99.90;;;;;;5034351;28;20040;-88
2021/09/17 11:02:42;;;;;;;0.68;0.68;;;17.50;99.90;;;;;;5025941;28;20108;-87
2021/09/17 11:05:17;;;;;;;3.75;0.52;;;17.20;99.90;;;;;;5033887;28;20098;-88
2021/09/17 11:07:43;;;;;;;2.47;0.60;;;16.70;99.90;;;;;;5033011;28;20041;-84
2021/09/17 11:10:24;;;;;;;0.73;0.60;;;16.30;99.90;;;;;;5033701;28;20048;-84
2021/09/17 11:12:50;;;;;;;0.63;0.50;;;16.10;99.90;;;;;;5049191;28;20418;-86
2021/09/17 11:15:18;;;;;;;3.65;0.50;;;15.90;99.90;;;;;;5033815;28;20057;-86
2021/09/17 11:17:52;;;;;;;2.58;0.73;;;15.80;99.90;;;;;;5032222;28;20032;-85
2021/09/17 11:20:28;;;;;;;3.45;0.95;;;15.80;99.90;;;;;;5033691;28;20104;-85
2021/09/17 11:23:08;;;;;;;1.85;0.95;;;15.90;99.90;;;;;;5033730;28;20034;-84
2021/09/17 11:25:41;;;;;;;5.07;0.68;;;16.10;99.90;;;;;;5032667;28;20026;-85
2021/09/17 11:28:30;;;;;;;4.15;0.85;;;16.30;99.90;;;;;;5032212;28;20444;-84
2021/09/17 11:31:11;;;;;;;4.78;0.75;;;16.50;99.90;;;;;;5018729;28;20139;-85
2021/09/17 11:33:37;;;;;;;1.63;1.02;;;17.00;99.90;;;;;;5032084;28;20029;-84
2021/09/17 11:36:03;;;;;;;3.38;0.93;;;16.90;99.90;;;;;;5033630;28;20482;-85
2021/09/17 11:38:28;;;;;;;1.75;0.80;;;16.80;99.90;;;;;;5033700;28;20026;-86
2021/09/17 11:40:55;;;;;;;2.45;1.38;;;16.60;99.90;;;;;;5026933;28;20025;-85
2021/09/17 11:43:21;;;;;;;1.48;0.80;;;16.60;99.90;;;;;;5033156;28;20095;-84
2021/09/17 11:45:50;;;;;;;2.13;0.70;;;16.40;99.90;;;;;;5032889;28;20108;-86
2021/09/17 11:48:34;;;;;;;3.53;0.95;;;16.10;99.90;;;;;;5026113;28;20572;-85
2021/09/17 11:51:08;;;;;;;;;;;16.10;99.90;;;;;;5033760;28;20029;-85
2021/09/17 11:53:44;;;;;;;2.65;1.15;;;16.10;99.90;;;;;;5040927;28;19963;-85
2021/09/17 11:56:10;;;;;;;1.90;1.25;;;16.20;99.90;;;;;;5042985;28;20026;-84
2021/09/17 11:58:47;;;;;;;4.15;1.23;;;16.30;99.90;;;;;;5031278;28;20029;-86
2021/09/17 12:01:22;;;;;;;1.73;0.80;;;16.00;99.90;;;;;;5025657;28;20025;-86
2021/09/17 12:03:48;;;;;;;2.35;0.80;;;16.10;99.90;;;;;;5034132;28;20018;-84
2021/09/17 12:06:15;;;;;;;3.17;0.70;;;16.20;99.90;;;;;;5034532;28;20486;-85
2021/09/17 12:08:41;;;;;;;1.27;0.80;;;16.10;99.90;;;;;;5032143;28;20025;-85
2021/09/17 12:11:07;;;;;;;2.28;0.80;;;16.30;99.90;;;;;;5013351;28;20548;-85
2021/09/17 12:13:33;;;;;;;2.22;0.98;;;16.30;99.90;;;;;;5030734;28;20018;-84
2021/09/17 12:15:59;;;;;;;3.35;0.98;;;16.10;99.90;;;;;;5013064;28;20375;-84
2021/09/17 12:18:28;;;;;;;2.50;0.77;;;16.00;99.90;;;;;;5018992;28;20022;-87
2021/09/17 12:21:00;;;;;;;2.83;1.00;;;15.80;99.90;;;;;;5030789;28;20099;-85
2021/09/17 12:23:36;;;;;;;2.08;1.13;;;15.80;99.90;;;;;;5035807;28;20375;-86
2021/09/17 12:26:20;;;;;;;2.90;0.95;;;15.50;99.90;;;;;;5030885;28;20033;-85
2021/09/17 12:28:49;;;;;;;3.15;1.63;;;15.40;99.90;;;;;;5035733;28;20040;-87
2021/09/17 12:31:31;;;;;;;2.05;1.00;;;15.30;99.90;;;;;;5046434;28;20116;-87
2021/09/17 12:34:13;;;;;;;3.17;0.82;;;15.20;99.90;;;;;;5030781;28;20040;-87
2021/09/17 12:36:39;;;;;;;3.30;0.85;;;15.40;99.90;;;;;;5029570;28;20446;-86
2021/09/17 12:39:06;;;;;;;1.70;1.08;;;15.30;99.90;;;;;;5015945;28;20112;-85
2021/09/17 12:41:32;;;;;;;2.65;1.13;;;15.40;99.90;;;;;;5028470;28;20110;-86
2021/09/17 12:44:08;;;;;;;1.00;0.80;;;15.40;99.90;;;;;;5029305;28;20502;-85
2021/09/17 12:46:35;;;;;;;2.05;1.00;;;15.30;99.90;;;;;;5033806;28;20053;-88
2021/09/17 12:49:01;;;;;;;6.97;1.02;;;15.30;99.90;;;;;;5029265;28;20489;-86